Acton, Texas
Current Conditions -  °F | °C
As of 3:35 AM on Monday 22 Dec 2014 (Local Time) from KGDJ Reporting Station
Clear Clear  
Wind Chill: 11°   Ceiling: Unl
Heat Index: 11°   Visibility: 10mi
Dew Point:   Wind: 15mph
Humidity: 83%   Direction: 200°SSW
Pressure: 29.62"   Gusts: 22mph
Location:  32.4693°N, 97.7085°W
Report Text: KGDJ 220935Z AUTO 20013G19KT 10SM CLR 11/08 A2962 RMK AO2 T01100083
Loading
Personal Weather Stations






























Interactive Weather Map New forecast layout! Learn more

10-Day Weather Forecast

Advertisements
Track Severe Weather on mobile